Time;durP1;ratioP1;P1;durP2;ratioP2;P2;SDS_P1;SDS_P2;PMS_P1;PMS_P2;Temp;Humidity;BMP_temperature;BMP_pressure;BME280_temperature;BME280_humidity;BME280_pressure;Samples;Min_cycle;Max_cycle;Signal;HPM_P1;HPM_P2
2023/09/11 00:01:03;;;;;;;27.20;15.07;;;20.50;99.90;;;;;;6180696;23;20025;-70
2023/09/11 00:03:29;;;;;;;28.15;14.20;;;20.50;99.90;;;;;;6180097;23;20013;-70
2023/09/11 00:06:03;;;;;;;21.88;14.02;;;20.40;99.90;;;;;;6129680;23;20542;-69
2023/09/11 00:08:29;;;;;;;26.23;14.50;;;20.40;99.90;;;;;;6154415;23;20033;-69
2023/09/11 00:10:55;;;;;;;30.98;15.40;;;20.50;99.90;;;;;;6180579;23;20550;-69
2023/09/11 00:13:21;;;;;;;25.95;14.13;;;20.40;99.90;;;;;;6180461;23;20034;-70
2023/09/11 00:15:46;;;;;;;23.17;14.55;;;20.40;99.90;;;;;;6180839;23;20017;-69
2023/09/11 00:18:12;;;;;;;22.23;13.23;;;20.40;99.90;;;;;;6153699;23;20017;-70
2023/09/11 00:20:38;;;;;;;25.52;13.75;;;20.40;99.90;;;;;;6181333;23;20052;-69
2023/09/11 00:23:03;;;;;;;24.33;14.75;;;20.40;99.90;;;;;;6181238;23;20028;-70
2023/09/11 00:25:29;;;;;;;28.75;15.15;;;20.40;99.90;;;;;;6180797;23;20035;-69
2023/09/11 00:27:55;;;;;;;27.02;15.25;;;20.40;99.90;;;;;;6154285;23;20025;-70
2023/09/11 00:30:21;;;;;;;21.83;14.30;;;20.30;99.90;;;;;;6180946;23;20075;-70
2023/09/11 00:32:47;;;;;;;28.70;14.80;;;20.30;99.90;;;;;;6154198;23;20465;-69
2023/09/11 00:35:12;;;;;;;25.73;15.55;;;20.30;99.90;;;;;;6180995;23;20024;-69
2023/09/11 00:37:38;;;;;;;28.25;15.63;;;20.30;99.90;;;;;;6154078;23;20375;-69
2023/09/11 00:40:05;;;;;;;24.15;15.38;;;20.20;99.90;;;;;;6153930;23;20099;-70
2023/09/11 00:42:31;;;;;;;23.45;15.25;;;20.20;99.90;;;;;;6153757;23;20020;-70
2023/09/11 00:44:56;;;;;;;27.17;15.50;;;20.20;99.90;;;;;;6154194;23;20032;-70
2023/09/11 00:47:22;;;;;;;32.38;16.58;;;20.20;99.90;;;;;;6182201;23;20024;-69
2023/09/11 00:49:48;;;;;;;29.30;14.65;;;20.20;99.90;;;;;;6182554;23;20119;-70
2023/09/11 00:52:14;;;;;;;26.23;14.48;;;20.20;99.90;;;;;;6155765;23;20057;-69
2023/09/11 00:54:40;;;;;;;22.35;15.50;;;20.20;99.90;;;;;;6182727;23;20021;-70
2023/09/11 00:57:06;;;;;;;31.95;15.40;;;20.20;99.90;;;;;;6155686;23;20013;-70
2023/09/11 00:59:32;;;;;;;27.77;15.10;;;20.10;99.90;;;;;;6155812;23;20029;-69
2023/09/11 01:01:59;;;;;;;37.95;15.27;;;20.10;99.90;;;;;;6155387;23;20104;-70
2023/09/11 01:04:25;;;;;;;30.40;15.52;;;20.10;99.90;;;;;;6155735;23;20034;-69
2023/09/11 01:06:51;;;;;;;36.35;15.55;;;20.10;99.90;;;;;;6182514;23;20060;-70
2023/09/11 01:09:17;;;;;;;37.33;15.88;;;20.00;99.90;;;;;;6182616;23;20025;-70
2023/09/11 01:11:43;;;;;;;35.95;14.80;;;20.00;99.90;;;;;;6182191;23;20052;-70
2023/09/11 01:14:09;;;;;;;31.13;16.30;;;20.00;99.90;;;;;;6182599;23;20032;-70
2023/09/11 01:16:55;;;;;;;20.65;14.75;;;19.90;99.90;;;;;;6182216;23;20444;-70
2023/09/11 01:19:38;;;;;;;30.17;14.15;;;20.00;99.90;;;;;;6107118;23;20450;-70
2023/09/11 01:22:29;;;;;;;21.70;15.07;;;20.00;99.90;;;;;;6155942;23;20021;-70
2023/09/11 01:25:09;;;;;;;26.75;14.57;;;20.00;99.90;;;;;;6181324;23;20053;-69
2023/09/11 01:49:32;;;;;;;33.30;16.55;;;19.80;99.90;;;;;;6199631;23;20158;-69
2023/09/11 01:51:59;;;;;;;29.25;15.73;;;19.80;99.90;;;;;;6211254;23;20511;-69
2023/09/11 01:54:25;;;;;;;34.72;17.00;;;19.80;99.90;;;;;;6185029;23;20099;-69
2023/09/11 01:56:51;;;;;;;31.90;16.13;;;19.80;99.90;;;;;;6184661;23;20765;-69
2023/09/11 01:59:16;;;;;;;31.40;15.75;;;19.80;99.90;;;;;;6211869;23;20095;-70
2023/09/11 02:01:45;;;;;;;24.77;17.05;;;19.80;99.90;;;;;;6185164;23;20021;-69
2023/09/11 02:04:11;;;;;;;30.42;15.43;;;19.80;99.90;;;;;;6211940;23;20017;-69
2023/09/11 02:06:37;;;;;;;32.10;16.77;;;19.80;99.90;;;;;;6184752;23;20028;-69
2023/09/11 02:09:02;;;;;;;27.58;15.60;;;19.80;99.90;;;;;;6179926;23;20107;-69
2023/09/11 02:11:28;;;;;;;32.58;16.67;;;19.80;99.90;;;;;;6207869;23;20452;-69
2023/09/11 02:13:54;;;;;;;25.65;15.57;;;19.80;99.90;;;;;;6211813;23;20032;-69
2023/09/11 02:16:19;;;;;;;32.63;16.58;;;19.80;99.90;;;;;;6212238;23;20356;-69
2023/09/11 02:18:45;;;;;;;32.47;17.05;;;19.70;99.90;;;;;;6212272;23;20332;-69
2023/09/11 02:21:11;;;;;;;31.25;16.63;;;19.70;99.90;;;;;;6212488;23;20317;-69
2023/09/11 02:23:37;;;;;;;30.30;16.92;;;19.60;99.90;;;;;;6212341;23;20329;-69
2023/09/11 02:26:02;;;;;;;24.60;15.00;;;19.70;99.90;;;;;;6211687;23;20035;-69
2023/09/11 02:28:28;;;;;;;32.08;16.73;;;19.60;99.90;;;;;;6184854;23;20049;-69
2023/09/11 02:30:54;;;;;;;21.88;15.77;;;19.60;99.90;;;;;;6211537;23;20078;-69
2023/09/11 02:33:19;;;;;;;32.08;17.90;;;19.50;99.90;;;;;;6185447;23;20020;-69
2023/09/11 02:35:52;;;;;;;34.03;17.02;;;19.50;99.90;;;;;;6185071;23;20441;-69
2023/09/11 02:38:17;;;;;;;35.30;17.42;;;19.50;99.90;;;;;;6211896;23;20363;-69
2023/09/11 02:40:43;;;;;;;31.90;17.13;;;19.50;99.90;;;;;;6211804;23;20021;-70
2023/09/11 02:43:09;;;;;;;27.02;17.02;;;19.50;99.90;;;;;;6184493;23;20033;-69
2023/09/11 02:45:34;;;;;;;29.90;17.20;;;19.50;99.90;;;;;;6211901;23;20532;-70
2023/09/11 02:48:00;;;;;;;33.08;17.73;;;19.50;99.90;;;;;;6211470;23;20443;-70
2023/09/11 02:50:26;;;;;;;32.80;17.95;;;19.50;99.90;;;;;;6184580;23;20352;-69
2023/09/11 02:52:51;;;;;;;30.60;19.23;;;19.50;99.90;;;;;;6211610;23;20024;-69
2023/09/11 02:55:17;;;;;;;34.42;18.02;;;19.50;99.90;;;;;;6211317;23;20033;-70
2023/09/11 02:57:43;;;;;;;26.60;17.83;;;19.50;99.90;;;;;;6184125;23;20048;-70
2023/09/11 03:00:09;;;;;;;31.90;16.92;;;19.50;99.90;;;;;;6201461;23;20023;-70
2023/09/11 03:02:35;;;;;;;30.17;17.20;;;19.50;99.90;;;;;;6211580;23;20028;-70
2023/09/11 03:05:01;;;;;;;31.73;17.20;;;19.50;99.90;;;;;;6184538;23;20103;-70
2023/09/11 03:07:26;;;;;;;33.50;17.05;;;19.50;99.90;;;;;;6211447;23;20532;-70
2023/09/11 03:09:52;;;;;;;29.25;17.67;;;19.50;99.90;;;;;;6211067;23;20035;-70
2023/09/11 03:12:17;;;;;;;26.40;16.67;;;19.50;99.90;;;;;;6210832;23;20024;-70
2023/09/11 03:14:43;;;;;;;30.58;18.08;;;19.50;99.90;;;;;;6211444;23;20067;-70
2023/09/11 03:17:10;;;;;;;27.45;17.00;;;19.50;99.90;;;;;;6211577;23;20534;-70
2023/09/11 03:19:36;;;;;;;30.92;17.98;;;19.40;99.90;;;;;;6211085;23;20444;-70
2023/09/11 03:22:02;;;;;;;30.23;17.60;;;19.40;99.90;;;;;;6211514;23;20052;-69
2023/09/11 03:24:28;;;;;;;31.50;17.90;;;19.40;99.90;;;;;;6211433;23;20025;-70
2023/09/11 03:26:54;;;;;;;25.65;17.58;;;19.40;99.90;;;;;;6184273;23;20573;-70
2023/09/11 03:29:19;;;;;;;36.30;17.38;;;19.30;99.90;;;;;;6211268;23;20021;-70
2023/09/11 03:31:45;;;;;;;32.17;17.95;;;19.30;99.90;;;;;;6211339;23;20023;-70
2023/09/11 03:34:11;;;;;;;25.50;17.42;;;19.30;99.90;;;;;;6183835;23;20023;-70
2023/09/11 03:36:36;;;;;;;34.50;16.60;;;19.30;99.90;;;;;;6211298;23;20043;-70
2023/09/11 03:39:02;;;;;;;28.02;17.58;;;19.20;99.90;;;;;;6184054;23;20360;-70
2023/09/11 03:41:29;;;;;;;27.33;17.50;;;19.30;99.90;;;;;;6210370;23;20042;-69
2023/09/11 03:43:55;;;;;;;34.15;18.30;;;19.20;99.90;;;;;;6184163;23;20478;-69
2023/09/11 03:46:21;;;;;;;40.50;19.33;;;19.20;99.90;;;;;;6211147;23;20084;-70
2023/09/11 03:48:47;;;;;;;37.90;17.98;;;19.20;99.90;;;;;;6210547;23;20621;-70
2023/09/11 03:51:13;;;;;;;37.88;18.80;;;19.20;99.90;;;;;;6211201;23;20067;-69
2023/09/11 03:53:42;;;;;;;30.33;18.77;;;19.20;99.90;;;;;;6210929;23;20016;-70
2023/09/11 03:56:10;;;;;;;37.33;19.77;;;19.20;99.90;;;;;;6183877;23;20091;-70
2023/09/11 03:58:35;;;;;;;35.13;19.42;;;19.10;99.90;;;;;;6211102;23;20321;-70
2023/09/11 04:01:01;;;;;;;35.13;20.08;;;19.10;99.90;;;;;;6211191;23;20023;-70
2023/09/11 04:03:27;;;;;;;32.42;18.55;;;19.10;99.90;;;;;;6179842;23;20527;-70
2023/09/11 04:05:52;;;;;;;39.10;19.73;;;19.10;99.90;;;;;;6184229;23;20036;-70
2023/09/11 04:08:18;;;;;;;35.15;20.10;;;19.10;99.90;;;;;;6184253;23;20024;-70
2023/09/11 04:10:44;;;;;;;30.70;20.10;;;19.10;99.90;;;;;;6183879;23;20091;-69
2023/09/11 04:13:10;;;;;;;30.63;18.95;;;19.10;99.90;;;;;;6211330;23;20445;-70
2023/09/11 04:15:36;;;;;;;33.70;19.52;;;19.10;99.90;;;;;;6184195;23;20036;-70
2023/09/11 04:18:02;;;;;;;28.45;20.17;;;19.00;99.90;;;;;;6210954;23;20028;-70
2023/09/11 04:20:33;;;;;;;34.83;20.95;;;19.00;99.90;;;;;;6210958;23;20112;-70
2023/09/11 04:23:00;;;;;;;35.85;20.02;;;19.10;99.90;;;;;;6183950;23;20027;-70
2023/09/11 04:25:26;;;;;;;32.30;19.45;;;19.00;99.90;;;;;;6183414;23;20020;-70
2023/09/11 04:27:51;;;;;;;29.52;19.65;;;19.00;99.90;;;;;;6210732;23;20104;-70
2023/09/11 04:30:17;;;;;;;31.17;20.48;;;18.90;99.90;;;;;;6183821;23;20454;-70
2023/09/11 04:32:44;;;;;;;32.65;19.67;;;19.00;99.90;;;;;;6210378;23;20012;-70
2023/09/11 04:35:09;;;;;;;33.15;19.48;;;19.00;99.90;;;;;;6183780;23;20120;-70
2023/09/11 04:37:36;;;;;;;33.30;19.15;;;18.90;99.90;;;;;;6183684;23;20392;-70
2023/09/11 04:40:05;;;;;;;37.97;19.45;;;18.90;99.90;;;;;;6210441;23;20028;-70
2023/09/11 04:42:31;;;;;;;29.98;18.70;;;18.90;99.90;;;;;;6184256;23;20016;-69
2023/09/11 04:44:59;;;;;;;40.40;18.27;;;19.00;99.90;;;;;;6210988;23;20315;-70
2023/09/11 04:47:26;;;;;;;35.67;18.75;;;18.90;99.90;;;;;;6210495;23;20083;-69
2023/09/11 04:49:52;;;;;;;37.47;20.00;;;18.90;99.90;;;;;;6210349;23;20046;-70
2023/09/11 04:52:18;;;;;;;29.88;20.05;;;19.00;99.90;;;;;;6183760;23;20135;-69
2023/09/11 04:54:43;;;;;;;35.58;19.98;;;18.90;99.90;;;;;;6183174;23;20033;-70
2023/09/11 04:57:09;;;;;;;38.13;19.50;;;18.90;99.90;;;;;;6210397;23;20048;-69
2023/09/11 04:59:35;;;;;;;27.15;18.85;;;18.90;99.90;;;;;;6211071;23;20032;-70
2023/09/11 05:02:01;;;;;;;35.97;19.35;;;18.90;99.90;;;;;;6210995;23;20100;-70
2023/09/11 05:04:26;;;;;;;41.15;20.23;;;18.90;99.90;;;;;;6210737;23;20032;-70
2023/09/11 05:06:53;;;;;;;32.33;20.52;;;18.90;99.90;;;;;;6210103;23;20329;-69
2023/09/11 05:09:18;;;;;;;38.90;20.05;;;19.00;99.90;;;;;;6183254;23;20024;-70
2023/09/11 05:11:44;;;;;;;41.40;19.85;;;19.00;99.90;;;;;;6210613;23;20400;-70
2023/09/11 05:14:10;;;;;;;37.58;19.33;;;19.00;99.90;;;;;;6210063;23;20016;-70
2023/09/11 05:16:35;;;;;;;35.55;20.25;;;18.90;99.90;;;;;;6158921;23;20102;-70
2023/09/11 05:19:01;;;;;;;33.38;20.30;;;18.90;99.90;;;;;;6183375;23;20104;-69
2023/09/11 05:21:27;;;;;;;41.00;20.25;;;18.90;99.90;;;;;;6209891;23;20025;-70
2023/09/11 05:23:53;;;;;;;38.67;20.27;;;18.80;99.90;;;;;;6178344;23;20092;-69
2023/09/11 05:26:18;;;;;;;34.75;19.73;;;18.90;99.90;;;;;;6204174;23;20099;-69
2023/09/11 05:28:44;;;;;;;33.70;20.02;;;18.90;99.90;;;;;;6210530;23;20119;-69
2023/09/11 05:31:10;;;;;;;35.20;20.33;;;18.90;99.90;;;;;;6183555;23;20503;-69
2023/09/11 05:33:36;;;;;;;33.30;18.88;;;18.90;99.90;;;;;;6185749;23;20347;-70
2023/09/11 05:36:02;;;;;;;35.20;18.75;;;18.90;99.90;;;;;;6185368;23;20021;-69
2023/09/11 05:38:28;;;;;;;32.00;19.65;;;18.90;99.90;;;;;;6212198;23;20025;-70
2023/09/11 05:40:53;;;;;;;34.20;19.75;;;19.00;99.90;;;;;;6160851;23;20416;-69
2023/09/11 05:43:19;;;;;;;34.15;18.77;;;19.00;99.90;;;;;;6212369;23;20017;-70
2023/09/11 05:45:45;;;;;;;40.15;19.63;;;19.00;99.90;;;;;;6185836;23;20020;-69
2023/09/11 05:48:11;;;;;;;30.67;19.17;;;19.10;99.90;;;;;;6185918;23;20317;-70
2023/09/11 05:50:38;;;;;;;33.42;19.83;;;19.10;99.90;;;;;;6185675;23;20087;-70
2023/09/11 05:53:06;;;;;;;26.20;18.75;;;19.10;99.90;;;;;;6212063;23;20020;-70
2023/09/11 05:55:35;;;;;;;34.45;19.42;;;19.20;99.90;;;;;;6185609;23;20020;-69
2023/09/11 05:58:01;;;;;;;32.33;17.67;;;19.20;99.90;;;;;;6185001;23;20089;-70
2023/09/11 06:00:27;;;;;;;31.23;19.80;;;19.20;99.90;;;;;;6185367;23;20116;-70
2023/09/11 06:02:53;;;;;;;33.47;17.60;;;19.30;99.90;;;;;;6211918;23;20333;-70
2023/09/11 06:05:19;;;;;;;31.35;19.02;;;19.30;99.90;;;;;;6185086;23;20143;-70
2023/09/11 06:07:45;;;;;;;27.20;17.02;;;19.40;99.90;;;;;;6185104;23;20031;-70
2023/09/11 06:10:12;;;;;;;37.72;17.75;;;19.40;99.90;;;;;;6212263;23;20013;-70
2023/09/11 06:12:38;;;;;;;35.10;17.58;;;19.50;99.90;;;;;;6212095;23;20029;-69
2023/09/11 06:15:05;;;;;;;34.83;17.30;;;19.50;99.90;;;;;;6212184;23;20065;-70
2023/09/11 06:17:34;;;;;;;29.52;17.95;;;19.60;99.90;;;;;;6206956;23;20063;-69
2023/09/11 06:20:00;;;;;;;34.33;18.77;;;19.60;99.90;;;;;;6211946;23;20405;-70
2023/09/11 06:22:26;;;;;;;29.27;17.98;;;19.70;99.90;;;;;;6184815;23;20048;-69
2023/09/11 06:24:52;;;;;;;33.13;17.75;;;19.70;99.90;;;;;;6211721;23;20384;-70
2023/09/11 06:27:18;;;;;;;28.67;17.63;;;19.80;99.90;;;;;;6211900;23;20023;-70
2023/09/11 06:29:44;;;;;;;31.10;18.75;;;19.80;99.90;;;;;;6184735;23;20024;-70
2023/09/11 06:32:15;;;;;;;31.48;16.90;;;19.90;99.90;;;;;;6211824;23;20191;-70
2023/09/11 06:34:41;;;;;;;33.17;18.00;;;20.00;99.90;;;;;;6211549;23;20013;-70
2023/09/11 06:37:09;;;;;;;30.17;18.05;;;20.10;99.90;;;;;;6211998;23;20013;-70
2023/09/11 06:39:35;;;;;;;41.47;19.30;;;20.10;99.90;;;;;;6184968;23;20035;-70
2023/09/11 06:42:00;;;;;;;31.02;16.92;;;20.10;99.90;;;;;;6212260;23;20084;-70
2023/09/11 06:44:26;;;;;;;36.13;18.50;;;20.20;99.90;;;;;;6212188;23;20024;-71
2023/09/11 06:46:52;;;;;;;28.55;18.35;;;20.30;99.90;;;;;;6185299;23;20059;-70
2023/09/11 06:49:19;;;;;;;26.13;17.27;;;20.30;99.90;;;;;;6211370;23;20024;-70
2023/09/11 06:51:44;;;;;;;33.25;17.48;;;20.50;99.90;;;;;;6211877;23;20405;-70
2023/09/11 06:54:12;;;;;;;33.60;16.52;;;20.50;99.90;;;;;;6159811;23;20027;-70
2023/09/11 06:56:40;;;;;;;31.13;17.58;;;20.60;99.90;;;;;;6185223;23;20028;-70
2023/09/11 06:59:06;;;;;;;31.80;17.50;;;20.70;99.90;;;;;;6211320;23;20024;-70
2023/09/11 07:01:38;;;;;;;30.85;16.88;;;20.70;99.90;;;;;;6184954;23;20024;-70
2023/09/11 07:04:05;;;;;;;36.28;16.55;;;20.80;99.90;;;;;;6159770;23;20063;-70
2023/09/11 07:06:31;;;;;;;34.00;17.13;;;20.90;99.90;;;;;;6184746;23;20344;-70
2023/09/11 07:08:57;;;;;;;28.85;16.50;;;21.00;99.90;;;;;;6211496;23;20070;-70
2023/09/11 07:11:22;;;;;;;30.13;16.13;;;21.00;99.90;;;;;;6211418;23;20452;-70
2023/09/11 07:13:48;;;;;;;31.77;16.95;;;21.10;99.90;;;;;;6184654;23;20025;-70
2023/09/11 07:16:13;;;;;;;25.92;16.50;;;21.20;99.90;;;;;;6185062;23;20025;-70
2023/09/11 07:18:39;;;;;;;31.83;17.08;;;21.20;99.90;;;;;;6211384;23;20021;-70
2023/09/11 07:21:05;;;;;;;28.58;16.60;;;21.30;99.90;;;;;;6184703;23;20043;-70
2023/09/11 07:23:30;;;;;;;25.33;16.63;;;21.40;99.90;;;;;;6184703;23;20091;-70
2023/09/11 07:25:56;;;;;;;32.65;16.98;;;21.40;99.90;;;;;;6184752;23;20092;-70
2023/09/11 07:28:26;;;;;;;31.15;17.02;;;21.50;99.90;;;;;;6185300;23;20025;-70
2023/09/11 07:30:53;;;;;;;32.78;16.45;;;21.50;99.90;;;;;;6185034;23;20352;-70
2023/09/11 07:33:19;;;;;;;27.92;15.55;;;21.70;99.90;;;;;;6184410;23;20021;-70
2023/09/11 07:35:46;;;;;;;26.70;16.55;;;21.70;99.90;;;;;;6211289;23;20103;-70
2023/09/11 07:38:11;;;;;;;34.85;16.67;;;21.70;99.90;;;;;;6210918;23;20016;-70
2023/09/11 07:40:38;;;;;;;36.92;16.63;;;21.70;99.90;;;;;;6211473;23;20020;-70
2023/09/11 07:43:04;;;;;;;29.23;16.42;;;21.80;99.90;;;;;;6211285;23;20026;-70
2023/09/11 07:45:30;;;;;;;28.58;16.13;;;21.90;99.90;;;;;;6159524;23;20025;-70
2023/09/11 07:47:56;;;;;;;28.20;16.70;;;22.00;99.90;;;;;;6210788;23;20092;-71
2023/09/11 07:50:22;;;;;;;36.58;17.25;;;22.10;99.90;;;;;;6211180;23;20016;-70
2023/09/11 07:52:47;;;;;;;32.03;14.80;;;22.10;99.90;;;;;;6211348;23;20027;-70
2023/09/11 07:55:14;;;;;;;27.60;16.58;;;22.20;99.90;;;;;;6211104;23;20012;-71
2023/09/11 07:57:42;;;;;;;28.40;15.93;;;22.30;99.90;;;;;;6211000;23;20029;-69
2023/09/11 08:00:08;;;;;;;29.40;15.95;;;22.40;99.90;;;;;;6211197;23;20029;-70
2023/09/11 08:02:34;;;;;;;31.38;15.18;;;22.40;99.90;;;;;;6210745;23;20461;-69
2023/09/11 08:05:00;;;;;;;24.25;15.02;;;22.40;99.90;;;;;;6211017;23;20023;-69
2023/09/11 08:07:25;;;;;;;30.00;15.88;;;22.40;99.90;;;;;;6184197;23;20028;-69
2023/09/11 08:09:56;;;;;;;37.60;16.02;;;22.50;99.90;;;;;;6211213;23;20013;-71
2023/09/11 08:12:22;;;;;;;35.00;15.80;;;22.70;99.90;;;;;;6210887;23;20021;-70
2023/09/11 08:14:48;;;;;;;22.27;15.25;;;22.80;99.90;;;;;;6210911;23;20051;-69
2023/09/11 08:17:13;;;;;;;32.03;13.63;;;22.80;99.90;;;;;;6210434;23;20075;-69
2023/09/11 08:19:39;;;;;;;29.98;14.73;;;22.90;99.90;;;;;;6210320;23;20020;-69
2023/09/11 08:22:05;;;;;;;20.73;13.90;;;23.00;99.90;;;;;;6183938;23;20052;-69
2023/09/11 08:24:30;;;;;;;25.65;13.05;;;23.10;99.90;;;;;;6183683;23;20127;-69
2023/09/11 08:26:57;;;;;;;20.15;12.55;;;23.20;99.90;;;;;;6183800;23;20020;-70
2023/09/11 08:29:22;;;;;;;27.15;13.82;;;23.20;99.90;;;;;;6183886;23;20031;-69
2023/09/11 08:31:48;;;;;;;26.35;13.98;;;23.30;99.90;;;;;;6210473;23;20013;-69
2023/09/11 08:34:14;;;;;;;20.92;13.52;;;23.40;99.90;;;;;;6159112;23;20025;-70
2023/09/11 08:36:40;;;;;;;22.67;12.82;;;23.40;99.90;;;;;;6210691;23;20019;-69
2023/09/11 08:39:05;;;;;;;25.10;12.68;;;23.50;99.90;;;;;;6183930;23;20021;-70
2023/09/11 08:41:33;;;;;;;24.55;12.20;;;23.60;99.90;;;;;;6211016;23;20514;-69
2023/09/11 08:43:59;;;;;;;21.83;12.00;;;23.70;99.90;;;;;;6159171;23;20337;-71
2023/09/11 08:46:29;;;;;;;25.05;11.82;;;23.70;99.90;;;;;;6184265;23;20076;-69
2023/09/11 08:48:59;;;;;;;23.17;11.55;;;23.70;99.90;;;;;;6210779;23;20024;-69
2023/09/11 08:51:33;;;;;;;18.75;10.95;;;23.70;99.90;;;;;;6211350;23;20023;-69
2023/09/11 08:54:02;;;;;;;22.05;10.93;;;23.90;99.90;;;;;;6211334;23;20099;-71
2023/09/11 08:56:30;;;;;;;18.65;10.45;;;23.90;99.90;;;;;;6210772;23;20352;-70
2023/09/11 08:58:57;;;;;;;19.10;9.82;;;23.90;99.90;;;;;;6210786;23;20052;-69
2023/09/11 09:01:24;;;;;;;17.42;9.70;;;23.90;99.90;;;;;;6183770;23;20016;-69
2023/09/11 09:03:51;;;;;;;20.33;9.93;;;24.00;99.90;;;;;;6211213;23;20108;-70
2023/09/11 09:06:18;;;;;;;22.30;9.40;;;24.00;99.90;;;;;;6184248;23;20031;-69
2023/09/11 09:08:44;;;;;;;15.98;8.93;;;24.10;99.90;;;;;;6213276;23;20027;-69
2023/09/11 09:11:11;;;;;;;19.50;10.55;;;24.20;99.90;;;;;;6186733;23;20087;-69
2023/09/11 09:13:37;;;;;;;19.40;9.52;;;24.20;99.90;;;;;;6186080;23;20048;-71
2023/09/11 09:16:03;;;;;;;20.05;10.15;;;24.20;99.90;;;;;;6212506;23;20021;-69
2023/09/11 09:18:29;;;;;;;20.45;9.18;;;24.30;99.90;;;;;;6185794;23;20028;-70
2023/09/11 09:20:55;;;;;;;19.80;8.48;;;24.40;99.90;;;;;;6212836;23;20025;-69
2023/09/11 09:23:39;;;;;;;20.23;9.70;;;24.40;99.90;;;;;;6212905;23;20022;-69
2023/09/11 09:26:07;;;;;;;20.13;10.43;;;24.30;99.90;;;;;;6212119;23;20013;-70
2023/09/11 09:28:33;;;;;;;17.80;10.13;;;24.30;99.90;;;;;;6212828;23;20083;-69
2023/09/11 09:31:00;;;;;;;19.92;9.57;;;24.40;99.90;;;;;;6212718;23;20013;-69
2023/09/11 09:33:26;;;;;;;18.70;9.20;;;24.40;99.90;;;;;;6212475;23;20017;-69
2023/09/11 09:35:52;;;;;;;21.88;9.45;;;24.60;99.90;;;;;;6213086;23;20019;-70
2023/09/11 09:38:21;;;;;;;16.38;9.73;;;24.50;99.90;;;;;;6185919;23;20025;-70
2023/09/11 09:40:47;;;;;;;20.67;10.07;;;24.60;99.90;;;;;;6185917;23;20051;-69
2023/09/11 09:43:17;;;;;;;16.85;10.27;;;24.70;99.90;;;;;;6212238;23;20028;-70
2023/09/11 09:45:43;;;;;;;18.98;9.57;;;24.70;99.90;;;;;;6185847;23;20021;-69
2023/09/11 09:48:16;;;;;;;27.10;10.60;;;24.80;99.90;;;;;;6212180;23;20348;-69
2023/09/11 09:50:52;;;;;;;19.27;9.70;;;25.00;99.90;;;;;;6161431;23;20032;-70
2023/09/11 09:53:21;;;;;;;22.15;10.25;;;24.90;99.90;;;;;;6212566;23;20099;-69
2023/09/11 09:55:47;;;;;;;20.17;9.75;;;25.00;99.90;;;;;;6212208;23;20096;-70
2023/09/11 09:58:13;;;;;;;16.88;9.95;;;24.90;99.90;;;;;;6212267;23;20056;-70
2023/09/11 10:00:38;;;;;;;14.88;9.23;;;25.00;99.90;;;;;;6212809;23;20021;-69
2023/09/11 10:03:04;;;;;;;16.45;10.05;;;25.00;99.90;;;;;;6185907;23;20017;-69
2023/09/11 10:05:30;;;;;;;19.75;10.15;;;25.00;99.90;;;;;;6212885;23;20016;-69
2023/09/11 10:07:59;;;;;;;14.60;9.63;;;25.00;99.90;;;;;;6185780;23;20017;-69
2023/09/11 10:10:27;;;;;;;16.88;9.65;;;25.10;99.90;;;;;;6212613;23;20352;-69
2023/09/11 10:13:08;;;;;;;21.90;10.63;;;25.10;99.90;;;;;;6185034;23;20024;-70
2023/09/11 10:15:36;;;;;;;15.68;9.75;;;25.10;99.90;;;;;;6160782;23;20431;-69
2023/09/11 10:18:03;;;;;;;22.98;10.85;;;25.10;99.90;;;;;;6211852;23;20016;-70
2023/09/11 10:20:30;;;;;;;15.65;8.95;;;25.20;99.90;;;;;;6185252;23;20020;-69
2023/09/11 10:22:58;;;;;;;14.88;9.95;;;25.20;99.90;;;;;;6211935;23;20013;-70
2023/09/11 10:25:26;;;;;;;18.38;10.43;;;25.30;99.90;;;;;;6211663;23;20453;-69
2023/09/11 10:28:04;;;;;;;20.17;10.52;;;25.30;99.90;;;;;;6211749;23;20032;-70
2023/09/11 10:30:52;;;;;;;16.90;10.38;;;25.20;99.90;;;;;;6212197;23;20020;-70
2023/09/11 10:33:25;;;;;;;18.55;10.65;;;25.50;99.90;;;;;;6185596;23;20089;-69
2023/09/11 10:35:56;;;;;;;17.70;9.43;;;25.50;99.90;;;;;;6212209;23;20043;-70
2023/09/11 10:38:22;;;;;;;12.80;9.05;;;25.50;99.90;;;;;;6185540;23;20023;-70
2023/09/11 10:40:49;;;;;;;14.40;9.85;;;25.40;99.90;;;;;;6185602;23;20028;-69
2023/09/11 10:43:15;;;;;;;16.73;8.77;;;25.40;99.90;;;;;;6185393;23;20032;-69
2023/09/11 10:45:41;;;;;;;13.18;8.85;;;25.50;99.90;;;;;;6185203;23;20012;-69
2023/09/11 10:48:28;;;;;;;22.23;9.40;;;25.50;99.90;;;;;;6211801;23;20021;-69
2023/09/11 10:50:56;;;;;;;16.17;9.27;;;25.50;99.90;;;;;;6212090;23;20021;-69
2023/09/11 10:53:28;;;;;;;19.52;9.25;;;25.60;99.90;;;;;;6211845;23;20038;-70
2023/09/11 10:55:57;;;;;;;15.50;8.98;;;25.60;99.90;;;;;;6184621;23;20016;-70
2023/09/11 10:58:23;;;;;;;20.60;9.40;;;25.80;99.90;;;;;;6211529;23;20452;-69
2023/09/11 11:00:57;;;;;;;15.23;8.98;;;26.00;99.90;;;;;;6184941;23;20027;-70
2023/09/11 11:03:30;;;;;;;15.65;9.20;;;25.90;99.90;;;;;;6184787;23;20067;-69
2023/09/11 11:06:01;;;;;;;16.73;9.52;;;26.00;99.90;;;;;;6184924;23;20381;-70
2023/09/11 11:08:34;;;;;;;18.10;9.80;;;26.10;99.90;;;;;;6211892;23;20016;-69
2023/09/11 11:11:02;;;;;;;12.77;8.90;;;26.20;99.90;;;;;;6211303;23;20024;-70
2023/09/11 11:13:28;;;;;;;15.63;8.15;;;26.20;99.90;;;;;;6184947;23;20107;-70
2023/09/11 11:16:15;;;;;;;11.93;8.30;;;26.10;99.90;;;;;;6184900;23;20083;-69
2023/09/11 11:18:42;;;;;;;18.08;8.40;;;26.10;99.90;;;;;;6211513;23;20451;-68
2023/09/11 11:21:09;;;;;;;17.38;9.77;;;26.10;99.90;;;;;;6211353;23;20471;-69
2023/09/11 11:23:56;;;;;;;13.50;8.65;;;26.10;99.90;;;;;;6211722;23;20016;-70
2023/09/11 11:26:25;;;;;;;16.48;9.02;;;26.00;99.90;;;;;;6184619;23;20079;-70
2023/09/11 11:28:52;;;;;;;12.63;8.85;;;26.20;99.90;;;;;;6211505;23;20095;-70
2023/09/11 11:31:20;;;;;;;19.42;9.68;;;26.20;99.90;;;;;;6211045;23;20027;-70
2023/09/11 11:33:48;;;;;;;19.60;9.18;;;26.10;99.90;;;;;;6185164;23;20020;-70
2023/09/11 11:36:16;;;;;;;17.92;9.10;;;26.20;99.90;;;;;;6211388;23;20107;-70
2023/09/11 11:38:43;;;;;;;15.35;9.73;;;26.20;99.90;;;;;;6211604;23;20052;-70
2023/09/11 11:41:11;;;;;;;17.38;10.48;;;26.20;99.90;;;;;;6211308;23;20020;-70
2023/09/11 11:43:37;;;;;;;18.05;9.45;;;26.30;99.90;;;;;;6211559;23;20012;-70
2023/09/11 11:46:06;;;;;;;17.10;10.02;;;26.40;99.90;;;;;;6211031;23;20039;-70
2023/09/11 11:48:33;;;;;;;18.88;11.07;;;26.30;99.90;;;;;;6211226;23;20150;-70
2023/09/11 11:50:59;;;;;;;16.25;11.27;;;26.20;99.90;;;;;;6211285;23;20026;-70
2023/09/11 11:53:25;;;;;;;16.58;9.98;;;26.30;99.90;;;;;;6184500;23;20025;-70
2023/09/11 11:55:55;;;;;;;14.68;9.95;;;26.30;99.90;;;;;;6184047;23;20050;-70
2023/09/11 11:58:21;;;;;;;14.80;9.80;;;26.30;99.90;;;;;;6211023;23;20017;-70
2023/09/11 12:00:58;;;;;;;16.13;8.50;;;26.30;99.90;;;;;;6184499;23;20023;-70
2023/09/11 12:03:25;;;;;;;15.38;8.50;;;26.30;99.90;;;;;;6211115;23;20030;-70
2023/09/11 12:05:51;;;;;;;12.40;8.60;;;26.30;99.90;;;;;;6184446;23;20020;-70
2023/09/11 12:08:17;;;;;;;13.23;8.73;;;26.40;99.90;;;;;;6211213;23;20355;-70
2023/09/11 12:10:50;;;;;;;18.30;9.50;;;26.40;99.90;;;;;;6211118;23;20034;-70
2023/09/11 12:13:22;;;;;;;16.92;7.95;;;26.40;99.90;;;;;;6159563;23;20024;-70
2023/09/11 12:16:06;;;;;;;16.83;8.15;;;26.50;99.90;;;;;;6211447;23;20322;-70
2023/09/11 12:18:36;;;;;;;13.93;7.97;;;26.60;99.90;;;;;;6211049;23;20022;-70
2023/09/11 12:21:06;;;;;;;19.48;7.60;;;26.60;99.90;;;;;;6159505;23;20448;-70
2023/09/11 12:23:32;;;;;;;12.43;7.70;;;26.60;99.90;;;;;;6211039;23;20024;-70
2023/09/11 12:26:01;;;;;;;14.27;6.78;;;26.50;99.90;;;;;;6211265;23;20016;-70
2023/09/11 12:28:27;;;;;;;8.45;5.10;;;26.60;99.90;;;;;;6212117;23;20087;-70
2023/09/11 12:30:54;;;;;;;9.40;5.07;;;26.60;99.90;;;;;;6184992;23;20025;-70
2023/09/11 12:33:25;;;;;;;12.27;5.82;;;26.60;99.90;;;;;;6184691;23;20463;-70
2023/09/11 12:35:51;;;;;;;7.47;5.47;;;26.60;99.90;;;;;;6211495;23;20013;-70
2023/09/11 12:38:18;;;;;;;11.48;5.28;;;26.60;99.90;;;;;;6184426;23;20031;-70
2023/09/11 12:40:43;;;;;;;7.03;5.40;;;26.60;99.90;;;;;;6184857;23;20037;-70
2023/09/11 12:43:10;;;;;;;7.60;5.35;;;26.60;99.90;;;;;;6187428;23;20102;-70
2023/09/11 12:45:36;;;;;;;12.02;5.38;;;26.60;99.90;;;;;;6187608;23;20017;-70
2023/09/11 12:48:04;;;;;;;9.98;5.35;;;26.70;99.90;;;;;;6187208;23;20016;-70
2023/09/11 12:50:31;;;;;;;9.90;5.35;;;26.70;99.90;;;;;;6214576;23;20386;-70
2023/09/11 12:52:58;;;;;;;10.90;5.28;;;26.80;99.90;;;;;;6214124;23;20020;-70